sensor_id;sensor_type;location;lat;lon;timestamp;P1;durP1;ratioP1;P2;durP2;ratioP2
75744;SDS011;64359;51.366;-0.222;2023-09-19T00:01:04;2.90;;;1.10;;
75744;SDS011;64359;51.366;-0.222;2023-09-19T00:02:10;3.30;;;1.10;;
75744;SDS011;64359;51.366;-0.222;2023-09-19T00:03:14;1.90;;;1.20;;
75744;SDS011;64359;51.366;-0.222;2023-09-19T00:04:19;3.60;;;1.40;;
75744;SDS011;64359;51.366;-0.222;2023-09-19T00:05:33;2.50;;;1.00;;
75744;SDS011;64359;51.366;-0.222;2023-09-19T00:06:39;3.80;;;1.10;;
75744;SDS011;64359;51.366;-0.222;2023-09-19T00:07:45;2.80;;;1.00;;
75744;SDS011;64359;51.366;-0.222;2023-09-19T00:08:50;3.70;;;1.20;;
75744;SDS011;64359;51.366;-0.222;2023-09-19T00:09:54;2.60;;;1.20;;
75744;SDS011;64359;51.366;-0.222;2023-09-19T00:10:59;2.40;;;1.10;;
75744;SDS011;64359;51.366;-0.222;2023-09-19T00:12:07;3.90;;;1.30;;
75744;SDS011;64359;51.366;-0.222;2023-09-19T00:13:11;2.50;;;0.90;;
75744;SDS011;64359;51.366;-0.222;2023-09-19T00:14:16;3.80;;;1.40;;
75744;SDS011;64359;51.366;-0.222;2023-09-19T00:15:20;3.50;;;1.10;;
75744;SDS011;64359;51.366;-0.222;2023-09-19T00:16:24;2.20;;;1.00;;
75744;SDS011;64359;51.366;-0.222;2023-09-19T00:17:29;2.40;;;1.10;;
75744;SDS011;64359;51.366;-0.222;2023-09-19T00:18:33;1.90;;;0.90;;
75744;SDS011;64359;51.366;-0.222;2023-09-19T00:19:38;4.90;;;1.30;;
75744;SDS011;64359;51.366;-0.222;2023-09-19T00:20:44;2.70;;;1.10;;
75744;SDS011;64359;51.366;-0.222;2023-09-19T00:21:49;3.10;;;1.10;;
75744;SDS011;64359;51.366;-0.222;2023-09-19T00:22:55;2.70;;;1.10;;
75744;SDS011;64359;51.366;-0.222;2023-09-19T00:24:07;3.20;;;1.30;;
75744;SDS011;64359;51.366;-0.222;2023-09-19T00:25:13;3.00;;;1.20;;
75744;SDS011;64359;51.366;-0.222;2023-09-19T00:26:17;3.20;;;1.20;;
75744;SDS011;64359;51.366;-0.222;2023-09-19T00:27:22;3.50;;;1.50;;
75744;SDS011;64359;51.366;-0.222;2023-09-19T00:28:26;4.30;;;1.70;;
75744;SDS011;64359;51.366;-0.222;2023-09-19T00:29:33;3.60;;;0.90;;
75744;SDS011;64359;51.366;-0.222;2023-09-19T00:30:37;2.50;;;1.10;;
75744;SDS011;64359;51.366;-0.222;2023-09-19T00:31:44;3.60;;;1.10;;
75744;SDS011;64359;51.366;-0.222;2023-09-19T00:32:50;3.80;;;1.80;;
75744;SDS011;64359;51.366;-0.222;2023-09-19T00:33:55;3.20;;;1.40;;
75744;SDS011;64359;51.366;-0.222;2023-09-19T00:35:04;2.50;;;1.30;;
75744;SDS011;64359;51.366;-0.222;2023-09-19T00:36:10;2.20;;;1.20;;
75744;SDS011;64359;51.366;-0.222;2023-09-19T00:37:15;2.50;;;1.20;;
75744;SDS011;64359;51.366;-0.222;2023-09-19T00:38:20;4.60;;;1.30;;
75744;SDS011;64359;51.366;-0.222;2023-09-19T00:39:28;3.00;;;1.10;;
75744;SDS011;64359;51.366;-0.222;2023-09-19T00:40:33;6.50;;;1.60;;
75744;SDS011;64359;51.366;-0.222;2023-09-19T00:41:38;3.30;;;1.50;;
75744;SDS011;64359;51.366;-0.222;2023-09-19T00:42:46;3.40;;;1.30;;
75744;SDS011;64359;51.366;-0.222;2023-09-19T00:43:51;2.70;;;1.00;;
75744;SDS011;64359;51.366;-0.222;2023-09-19T00:44:56;5.20;;;1.00;;
75744;SDS011;64359;51.366;-0.222;2023-09-19T00:46:00;3.50;;;1.10;;
75744;SDS011;64359;51.366;-0.222;2023-09-19T00:47:07;3.50;;;1.10;;
75744;SDS011;64359;51.366;-0.222;2023-09-19T00:49:20;3.80;;;1.10;;
75744;SDS011;64359;51.366;-0.222;2023-09-19T00:50:27;3.50;;;1.30;;
75744;SDS011;64359;51.366;-0.222;2023-09-19T00:51:33;3.30;;;1.00;;
75744;SDS011;64359;51.366;-0.222;2023-09-19T00:52:38;4.50;;;1.30;;
75744;SDS011;64359;51.366;-0.222;2023-09-19T00:53:43;2.90;;;1.10;;
75744;SDS011;64359;51.366;-0.222;2023-09-19T00:54:48;4.90;;;1.60;;
75744;SDS011;64359;51.366;-0.222;2023-09-19T00:55:53;4.00;;;1.50;;
75744;SDS011;64359;51.366;-0.222;2023-09-19T00:56:58;4.00;;;1.40;;
75744;SDS011;64359;51.366;-0.222;2023-09-19T00:58:03;3.30;;;1.30;;
75744;SDS011;64359;51.366;-0.222;2023-09-19T00:59:08;3.60;;;1.30;;
75744;SDS011;64359;51.366;-0.222;2023-09-19T01:00:13;4.00;;;1.30;;
75744;SDS011;64359;51.366;-0.222;2023-09-19T01:01:20;3.70;;;1.20;;
75744;SDS011;64359;51.366;-0.222;2023-09-19T01:02:26;2.90;;;1.30;;
75744;SDS011;64359;51.366;-0.222;2023-09-19T01:03:31;4.40;;;1.40;;
75744;SDS011;64359;51.366;-0.222;2023-09-19T01:04:36;5.30;;;1.20;;
75744;SDS011;64359;51.366;-0.222;2023-09-19T01:05:40;4.30;;;1.50;;
75744;SDS011;64359;51.366;-0.222;2023-09-19T01:06:45;3.00;;;1.40;;
75744;SDS011;64359;51.366;-0.222;2023-09-19T01:07:54;3.90;;;1.80;;
75744;SDS011;64359;51.366;-0.222;2023-09-19T01:08:58;3.30;;;1.20;;
75744;SDS011;64359;51.366;-0.222;2023-09-19T01:10:05;2.90;;;1.30;;
75744;SDS011;64359;51.366;-0.222;2023-09-19T01:11:15;3.30;;;1.20;;
75744;SDS011;64359;51.366;-0.222;2023-09-19T01:12:29;5.10;;;1.50;;
75744;SDS011;64359;51.366;-0.222;2023-09-19T01:13:46;2.70;;;0.90;;
75744;SDS011;64359;51.366;-0.222;2023-09-19T01:14:59;3.20;;;1.20;;
75744;SDS011;64359;51.366;-0.222;2023-09-19T01:16:15;5.10;;;1.10;;
75744;SDS011;64359;51.366;-0.222;2023-09-19T01:17:38;3.30;;;1.40;;
75744;SDS011;64359;51.366;-0.222;2023-09-19T01:18:50;3.20;;;1.40;;
75744;SDS011;64359;51.366;-0.222;2023-09-19T01:20:13;2.80;;;1.30;;
75744;SDS011;64359;51.366;-0.222;2023-09-19T01:21:27;4.40;;;1.30;;
75744;SDS011;64359;51.366;-0.222;2023-09-19T01:22:44;2.80;;;1.10;;
75744;SDS011;64359;51.366;-0.222;2023-09-19T01:24:22;1.90;;;1.20;;
75744;SDS011;64359;51.366;-0.222;2023-09-19T01:25:53;2.70;;;1.00;;
75744;SDS011;64359;51.366;-0.222;2023-09-19T01:27:21;4.10;;;1.20;;
75744;SDS011;64359;51.366;-0.222;2023-09-19T01:28:38;3.00;;;1.30;;
75744;SDS011;64359;51.366;-0.222;2023-09-19T01:30:03;3.60;;;1.30;;
75744;SDS011;64359;51.366;-0.222;2023-09-19T01:31:12;4.10;;;1.20;;
75744;SDS011;64359;51.366;-0.222;2023-09-19T01:32:17;3.70;;;1.50;;
75744;SDS011;64359;51.366;-0.222;2023-09-19T01:33:23;4.40;;;1.30;;
75744;SDS011;64359;51.366;-0.222;2023-09-19T01:34:28;3.70;;;1.70;;
75744;SDS011;64359;51.366;-0.222;2023-09-19T01:35:49;2.60;;;1.10;;
75744;SDS011;64359;51.366;-0.222;2023-09-19T01:36:59;3.10;;;1.20;;
75744;SDS011;64359;51.366;-0.222;2023-09-19T01:38:03;3.60;;;1.20;;
75744;SDS011;64359;51.366;-0.222;2023-09-19T01:39:11;4.20;;;1.50;;
75744;SDS011;64359;51.366;-0.222;2023-09-19T01:40:17;3.70;;;1.50;;
75744;SDS011;64359;51.366;-0.222;2023-09-19T01:41:28;4.20;;;1.40;;
75744;SDS011;64359;51.366;-0.222;2023-09-19T01:42:41;2.90;;;1.20;;
75744;SDS011;64359;51.366;-0.222;2023-09-19T01:43:48;4.40;;;1.40;;
75744;SDS011;64359;51.366;-0.222;2023-09-19T01:44:55;3.00;;;1.30;;
75744;SDS011;64359;51.366;-0.222;2023-09-19T01:46:07;3.40;;;1.50;;
75744;SDS011;64359;51.366;-0.222;2023-09-19T01:47:19;4.00;;;1.30;;
75744;SDS011;64359;51.366;-0.222;2023-09-19T01:48:33;2.80;;;1.20;;
75744;SDS011;64359;51.366;-0.222;2023-09-19T01:49:44;3.80;;;1.20;;
75744;SDS011;64359;51.366;-0.222;2023-09-19T01:51:00;3.60;;;1.30;;
75744;SDS011;64359;51.366;-0.222;2023-09-19T01:52:09;4.20;;;1.40;;
75744;SDS011;64359;51.366;-0.222;2023-09-19T01:53:19;5.80;;;1.40;;
75744;SDS011;64359;51.366;-0.222;2023-09-19T01:54:30;2.80;;;1.30;;
75744;SDS011;64359;51.366;-0.222;2023-09-19T01:55:42;5.00;;;2.10;;
75744;SDS011;64359;51.366;-0.222;2023-09-19T01:56:52;3.50;;;1.50;;
75744;SDS011;64359;51.366;-0.222;2023-09-19T01:58:06;3.80;;;1.40;;
75744;SDS011;64359;51.366;-0.222;2023-09-19T01:59:17;3.40;;;1.70;;
75744;SDS011;64359;51.366;-0.222;2023-09-19T02:00:28;2.80;;;1.20;;
75744;SDS011;64359;51.366;-0.222;2023-09-19T02:01:35;3.50;;;1.20;;
75744;SDS011;64359;51.366;-0.222;2023-09-19T02:02:42;4.50;;;1.30;;
75744;SDS011;64359;51.366;-0.222;2023-09-19T02:03:50;3.90;;;1.50;;
75744;SDS011;64359;51.366;-0.222;2023-09-19T02:04:55;3.50;;;1.40;;
75744;SDS011;64359;51.366;-0.222;2023-09-19T02:06:00;3.80;;;1.50;;
75744;SDS011;64359;51.366;-0.222;2023-09-19T02:07:06;3.90;;;1.40;;
75744;SDS011;64359;51.366;-0.222;2023-09-19T02:08:11;3.50;;;1.50;;
75744;SDS011;64359;51.366;-0.222;2023-09-19T02:09:18;4.60;;;1.60;;
75744;SDS011;64359;51.366;-0.222;2023-09-19T02:10:22;4.40;;;1.40;;
75744;SDS011;64359;51.366;-0.222;2023-09-19T02:11:27;6.20;;;1.40;;
75744;SDS011;64359;51.366;-0.222;2023-09-19T02:12:31;5.20;;;1.20;;
75744;SDS011;64359;51.366;-0.222;2023-09-19T02:13:36;4.80;;;1.70;;
75744;SDS011;64359;51.366;-0.222;2023-09-19T02:14:42;3.70;;;1.50;;
75744;SDS011;64359;51.366;-0.222;2023-09-19T02:15:46;5.00;;;1.50;;
75744;SDS011;64359;51.366;-0.222;2023-09-19T02:16:51;4.90;;;1.30;;
75744;SDS011;64359;51.366;-0.222;2023-09-19T02:17:55;3.80;;;1.40;;
75744;SDS011;64359;51.366;-0.222;2023-09-19T02:19:00;5.20;;;1.80;;
75744;SDS011;64359;51.366;-0.222;2023-09-19T02:20:07;3.40;;;1.10;;
75744;SDS011;64359;51.366;-0.222;2023-09-19T02:21:16;3.60;;;1.30;;
75744;SDS011;64359;51.366;-0.222;2023-09-19T02:22:20;4.40;;;1.60;;
75744;SDS011;64359;51.366;-0.222;2023-09-19T02:23:26;2.30;;;1.20;;
75744;SDS011;64359;51.366;-0.222;2023-09-19T02:24:31;3.50;;;1.40;;
75744;SDS011;64359;51.366;-0.222;2023-09-19T02:25:36;2.90;;;1.20;;
75744;SDS011;64359;51.366;-0.222;2023-09-19T02:26:41;3.60;;;1.40;;
75744;SDS011;64359;51.366;-0.222;2023-09-19T02:27:46;4.70;;;1.40;;
75744;SDS011;64359;51.366;-0.222;2023-09-19T02:28:50;4.20;;;1.40;;
75744;SDS011;64359;51.366;-0.222;2023-09-19T02:29:55;3.20;;;1.20;;
75744;SDS011;64359;51.366;-0.222;2023-09-19T02:30:59;3.30;;;1.50;;
75744;SDS011;64359;51.366;-0.222;2023-09-19T02:32:06;6.60;;;1.60;;
75744;SDS011;64359;51.366;-0.222;2023-09-19T02:33:11;5.60;;;1.30;;
75744;SDS011;64359;51.366;-0.222;2023-09-19T02:34:16;4.70;;;1.60;;
75744;SDS011;64359;51.366;-0.222;2023-09-19T02:35:20;3.90;;;1.40;;
75744;SDS011;64359;51.366;-0.222;2023-09-19T02:36:27;4.20;;;1.70;;
75744;SDS011;64359;51.366;-0.222;2023-09-19T02:37:32;3.00;;;1.40;;
75744;SDS011;64359;51.366;-0.222;2023-09-19T02:38:36;2.90;;;1.20;;
75744;SDS011;64359;51.366;-0.222;2023-09-19T02:39:41;4.90;;;1.60;;
75744;SDS011;64359;51.366;-0.222;2023-09-19T02:40:45;5.60;;;1.60;;
75744;SDS011;64359;51.366;-0.222;2023-09-19T02:41:49;4.60;;;1.50;;
75744;SDS011;64359;51.366;-0.222;2023-09-19T02:42:54;3.20;;;1.30;;
75744;SDS011;64359;51.366;-0.222;2023-09-19T02:44:00;3.00;;;1.40;;
75744;SDS011;64359;51.366;-0.222;2023-09-19T02:45:09;3.80;;;1.60;;
75744;SDS011;64359;51.366;-0.222;2023-09-19T02:46:14;4.40;;;1.40;;
75744;SDS011;64359;51.366;-0.222;2023-09-19T02:47:18;5.80;;;1.30;;
75744;SDS011;64359;51.366;-0.222;2023-09-19T02:48:23;7.40;;;1.60;;
75744;SDS011;64359;51.366;-0.222;2023-09-19T02:49:27;4.40;;;1.40;;
75744;SDS011;64359;51.366;-0.222;2023-09-19T02:50:31;4.50;;;1.60;;
75744;SDS011;64359;51.366;-0.222;2023-09-19T02:51:36;4.90;;;1.20;;
75744;SDS011;64359;51.366;-0.222;2023-09-19T02:52:42;4.20;;;1.00;;
75744;SDS011;64359;51.366;-0.222;2023-09-19T02:53:48;3.90;;;1.90;;
75744;SDS011;64359;51.366;-0.222;2023-09-19T02:54:54;6.00;;;1.60;;
75744;SDS011;64359;51.366;-0.222;2023-09-19T02:55:58;4.50;;;1.60;;
75744;SDS011;64359;51.366;-0.222;2023-09-19T02:57:03;3.40;;;1.50;;
75744;SDS011;64359;51.366;-0.222;2023-09-19T02:58:09;3.50;;;1.30;;
75744;SDS011;64359;51.366;-0.222;2023-09-19T02:59:13;3.60;;;1.30;;
75744;SDS011;64359;51.366;-0.222;2023-09-19T03:00:18;3.90;;;1.50;;
75744;SDS011;64359;51.366;-0.222;2023-09-19T03:01:23;4.60;;;1.40;;
75744;SDS011;64359;51.366;-0.222;2023-09-19T03:02:28;4.00;;;1.60;;
75744;SDS011;64359;51.366;-0.222;2023-09-19T03:03:36;3.10;;;1.20;;
75744;SDS011;64359;51.366;-0.222;2023-09-19T03:04:41;3.70;;;1.20;;
75744;SDS011;64359;51.366;-0.222;2023-09-19T03:05:47;4.10;;;1.30;;
75744;SDS011;64359;51.366;-0.222;2023-09-19T03:06:52;5.20;;;1.30;;
75744;SDS011;64359;51.366;-0.222;2023-09-19T03:08:01;4.30;;;1.50;;
75744;SDS011;64359;51.366;-0.222;2023-09-19T03:09:06;4.00;;;1.20;;
75744;SDS011;64359;51.366;-0.222;2023-09-19T03:10:15;2.50;;;1.10;;
75744;SDS011;64359;51.366;-0.222;2023-09-19T03:11:19;2.90;;;1.10;;
75744;SDS011;64359;51.366;-0.222;2023-09-19T03:12:24;4.00;;;1.30;;
75744;SDS011;64359;51.366;-0.222;2023-09-19T03:13:29;4.90;;;1.40;;
75744;SDS011;64359;51.366;-0.222;2023-09-19T03:14:33;3.40;;;1.40;;
75744;SDS011;64359;51.366;-0.222;2023-09-19T03:15:38;3.60;;;1.70;;
75744;SDS011;64359;51.366;-0.222;2023-09-19T03:16:48;4.70;;;1.40;;
75744;SDS011;64359;51.366;-0.222;2023-09-19T03:17:53;3.20;;;1.40;;
75744;SDS011;64359;51.366;-0.222;2023-09-19T03:18:59;4.20;;;1.40;;
75744;SDS011;64359;51.366;-0.222;2023-09-19T03:20:03;4.50;;;1.80;;
75744;SDS011;64359;51.366;-0.222;2023-09-19T03:21:11;3.70;;;1.30;;
75744;SDS011;64359;51.366;-0.222;2023-09-19T03:22:16;3.50;;;1.20;;
75744;SDS011;64359;51.366;-0.222;2023-09-19T03:23:20;5.30;;;1.20;;
75744;SDS011;64359;51.366;-0.222;2023-09-19T03:24:25;5.00;;;1.40;;
75744;SDS011;64359;51.366;-0.222;2023-09-19T03:25:30;4.00;;;1.30;;
75744;SDS011;64359;51.366;-0.222;2023-09-19T03:26:36;3.10;;;1.30;;
75744;SDS011;64359;51.366;-0.222;2023-09-19T03:27:40;3.20;;;1.70;;
75744;SDS011;64359;51.366;-0.222;2023-09-19T03:28:45;5.30;;;1.90;;
75744;SDS011;64359;51.366;-0.222;2023-09-19T03:29:49;5.70;;;1.70;;
75744;SDS011;64359;51.366;-0.222;2023-09-19T03:31:00;4.30;;;1.40;;
75744;SDS011;64359;51.366;-0.222;2023-09-19T03:32:05;3.00;;;1.50;;
75744;SDS011;64359;51.366;-0.222;2023-09-19T03:33:11;4.00;;;1.40;;
75744;SDS011;64359;51.366;-0.222;2023-09-19T03:34:15;3.10;;;1.40;;
75744;SDS011;64359;51.366;-0.222;2023-09-19T03:35:20;4.90;;;1.70;;
75744;SDS011;64359;51.366;-0.222;2023-09-19T03:36:25;4.10;;;1.50;;
75744;SDS011;64359;51.366;-0.222;2023-09-19T03:37:31;3.30;;;1.30;;
75744;SDS011;64359;51.366;-0.222;2023-09-19T03:38:35;2.20;;;1.30;;
75744;SDS011;64359;51.366;-0.222;2023-09-19T03:39:39;4.60;;;1.40;;
75744;SDS011;64359;51.366;-0.222;2023-09-19T03:40:44;3.20;;;1.20;;
75744;SDS011;64359;51.366;-0.222;2023-09-19T03:41:49;3.10;;;1.40;;
75744;SDS011;64359;51.366;-0.222;2023-09-19T03:42:53;5.30;;;1.60;;
75744;SDS011;64359;51.366;-0.222;2023-09-19T03:43:57;2.60;;;1.10;;
75744;SDS011;64359;51.366;-0.222;2023-09-19T03:45:02;4.70;;;1.10;;
75744;SDS011;64359;51.366;-0.222;2023-09-19T03:46:07;3.60;;;1.50;;
75744;SDS011;64359;51.366;-0.222;2023-09-19T03:47:14;4.20;;;1.30;;
75744;SDS011;64359;51.366;-0.222;2023-09-19T03:48:18;4.60;;;1.50;;
75744;SDS011;64359;51.366;-0.222;2023-09-19T03:49:23;4.10;;;1.50;;
75744;SDS011;64359;51.366;-0.222;2023-09-19T03:50:27;4.50;;;1.40;;
75744;SDS011;64359;51.366;-0.222;2023-09-19T03:51:31;5.60;;;1.40;;
75744;SDS011;64359;51.366;-0.222;2023-09-19T03:52:36;4.10;;;1.20;;
75744;SDS011;64359;51.366;-0.222;2023-09-19T03:53:40;3.80;;;1.10;;
75744;SDS011;64359;51.366;-0.222;2023-09-19T03:54:44;5.40;;;1.20;;
75744;SDS011;64359;51.366;-0.222;2023-09-19T03:55:49;2.80;;;1.20;;
75744;SDS011;64359;51.366;-0.222;2023-09-19T03:56:53;3.20;;;1.30;;
75744;SDS011;64359;51.366;-0.222;2023-09-19T03:57:57;2.90;;;1.50;;
75744;SDS011;64359;51.366;-0.222;2023-09-19T03:59:02;3.40;;;1.10;;
75744;SDS011;64359;51.366;-0.222;2023-09-19T04:00:07;3.60;;;1.50;;
75744;SDS011;64359;51.366;-0.222;2023-09-19T04:01:12;3.00;;;1.40;;
75744;SDS011;64359;51.366;-0.222;2023-09-19T04:02:18;2.10;;;1.20;;
75744;SDS011;64359;51.366;-0.222;2023-09-19T04:03:25;5.00;;;1.70;;
75744;SDS011;64359;51.366;-0.222;2023-09-19T04:04:36;2.70;;;1.00;;
75744;SDS011;64359;51.366;-0.222;2023-09-19T04:05:40;3.50;;;1.40;;
75744;SDS011;64359;51.366;-0.222;2023-09-19T04:06:45;4.60;;;1.40;;
75744;SDS011;64359;51.366;-0.222;2023-09-19T04:07:49;3.20;;;1.30;;
75744;SDS011;64359;51.366;-0.222;2023-09-19T04:08:54;4.10;;;1.50;;
75744;SDS011;64359;51.366;-0.222;2023-09-19T04:09:59;3.70;;;1.20;;
75744;SDS011;64359;51.366;-0.222;2023-09-19T04:11:04;5.70;;;1.80;;
75744;SDS011;64359;51.366;-0.222;2023-09-19T04:12:08;2.60;;;1.30;;
75744;SDS011;64359;51.366;-0.222;2023-09-19T04:13:13;3.10;;;1.60;;
75744;SDS011;64359;51.366;-0.222;2023-09-19T04:14:18;1.90;;;0.90;;
75744;SDS011;64359;51.366;-0.222;2023-09-19T04:15:22;4.10;;;1.20;;
75744;SDS011;64359;51.366;-0.222;2023-09-19T04:16:27;4.00;;;1.20;;
75744;SDS011;64359;51.366;-0.222;2023-09-19T04:17:31;2.00;;;0.90;;
75744;SDS011;64359;51.366;-0.222;2023-09-19T04:18:36;4.90;;;1.20;;
75744;SDS011;64359;51.366;-0.222;2023-09-19T04:19:41;2.40;;;1.20;;
75744;SDS011;64359;51.366;-0.222;2023-09-19T04:20:48;4.20;;;1.20;;
75744;SDS011;64359;51.366;-0.222;2023-09-19T04:21:53;3.30;;;1.20;;
75744;SDS011;64359;51.366;-0.222;2023-09-19T04:22:57;3.40;;;1.50;;
75744;SDS011;64359;51.366;-0.222;2023-09-19T04:24:02;4.70;;;1.30;;
75744;SDS011;64359;51.366;-0.222;2023-09-19T04:25:07;4.00;;;1.60;;
75744;SDS011;64359;51.366;-0.222;2023-09-19T04:26:11;3.30;;;1.40;;
75744;SDS011;64359;51.366;-0.222;2023-09-19T04:27:18;3.20;;;1.30;;
75744;SDS011;64359;51.366;-0.222;2023-09-19T04:28:22;4.80;;;1.30;;
75744;SDS011;64359;51.366;-0.222;2023-09-19T04:29:29;3.80;;;1.30;;
75744;SDS011;64359;51.366;-0.222;2023-09-19T04:30:34;3.40;;;1.40;;
75744;SDS011;64359;51.366;-0.222;2023-09-19T04:31:38;3.80;;;1.10;;
75744;SDS011;64359;51.366;-0.222;2023-09-19T04:32:45;7.00;;;1.60;;
75744;SDS011;64359;51.366;-0.222;2023-09-19T04:33:52;2.80;;;1.20;;
75744;SDS011;64359;51.366;-0.222;2023-09-19T04:34:56;2.30;;;1.50;;
75744;SDS011;64359;51.366;-0.222;2023-09-19T04:36:03;3.20;;;1.10;;
75744;SDS011;64359;51.366;-0.222;2023-09-19T04:37:08;3.90;;;1.20;;
75744;SDS011;64359;51.366;-0.222;2023-09-19T04:38:13;3.30;;;1.00;;
75744;SDS011;64359;51.366;-0.222;2023-09-19T04:39:17;3.10;;;1.40;;
75744;SDS011;64359;51.366;-0.222;2023-09-19T04:40:22;5.40;;;1.60;;
75744;SDS011;64359;51.366;-0.222;2023-09-19T04:41:28;2.90;;;1.40;;
75744;SDS011;64359;51.366;-0.222;2023-09-19T04:42:32;4.80;;;1.50;;
75744;SDS011;64359;51.366;-0.222;2023-09-19T04:43:36;3.00;;;1.10;;
75744;SDS011;64359;51.366;-0.222;2023-09-19T04:44:41;3.20;;;1.20;;
75744;SDS011;64359;51.366;-0.222;2023-09-19T04:45:45;4.40;;;1.10;;
75744;SDS011;64359;51.366;-0.222;2023-09-19T04:46:49;3.80;;;1.40;;
75744;SDS011;64359;51.366;-0.222;2023-09-19T04:47:54;4.10;;;1.80;;
75744;SDS011;64359;51.366;-0.222;2023-09-19T04:48:58;3.40;;;1.40;;
75744;SDS011;64359;51.366;-0.222;2023-09-19T04:50:03;4.00;;;1.30;;
75744;SDS011;64359;51.366;-0.222;2023-09-19T04:51:09;3.50;;;1.40;;
75744;SDS011;64359;51.366;-0.222;2023-09-19T04:52:15;4.70;;;1.20;;
75744;SDS011;64359;51.366;-0.222;2023-09-19T04:53:20;3.70;;;1.10;;
75744;SDS011;64359;51.366;-0.222;2023-09-19T04:54:24;2.90;;;1.20;;
75744;SDS011;64359;51.366;-0.222;2023-09-19T04:55:29;3.30;;;1.10;;
75744;SDS011;64359;51.366;-0.222;2023-09-19T04:56:34;2.70;;;1.00;;
75744;SDS011;64359;51.366;-0.222;2023-09-19T04:57:41;3.60;;;1.40;;
75744;SDS011;64359;51.366;-0.222;2023-09-19T04:58:47;3.30;;;1.20;;
75744;SDS011;64359;51.366;-0.222;2023-09-19T04:59:51;2.90;;;1.40;;
75744;SDS011;64359;51.366;-0.222;2023-09-19T05:00:55;2.60;;;1.20;;
75744;SDS011;64359;51.366;-0.222;2023-09-19T05:02:01;3.90;;;1.20;;
75744;SDS011;64359;51.366;-0.222;2023-09-19T05:03:05;4.50;;;1.50;;
75744;SDS011;64359;51.366;-0.222;2023-09-19T05:04:10;4.00;;;1.40;;
75744;SDS011;64359;51.366;-0.222;2023-09-19T05:05:14;3.70;;;1.10;;
75744;SDS011;64359;51.366;-0.222;2023-09-19T05:06:20;3.90;;;1.20;;
75744;SDS011;64359;51.366;-0.222;2023-09-19T05:07:25;4.90;;;1.70;;
75744;SDS011;64359;51.366;-0.222;2023-09-19T05:08:29;4.50;;;1.40;;
75744;SDS011;64359;51.366;-0.222;2023-09-19T05:09:33;2.60;;;0.90;;
75744;SDS011;64359;51.366;-0.222;2023-09-19T05:10:38;4.00;;;1.30;;
75744;SDS011;64359;51.366;-0.222;2023-09-19T05:11:43;2.70;;;1.00;;
75744;SDS011;64359;51.366;-0.222;2023-09-19T05:12:47;3.60;;;1.10;;
75744;SDS011;64359;51.366;-0.222;2023-09-19T05:13:55;3.50;;;1.10;;
75744;SDS011;64359;51.366;-0.222;2023-09-19T05:15:03;2.90;;;1.10;;
75744;SDS011;64359;51.366;-0.222;2023-09-19T05:16:09;4.10;;;1.30;;
75744;SDS011;64359;51.366;-0.222;2023-09-19T05:17:14;2.90;;;1.40;;
75744;SDS011;64359;51.366;-0.222;2023-09-19T05:18:19;4.40;;;1.20;;
75744;SDS011;64359;51.366;-0.222;2023-09-19T05:19:23;4.70;;;1.40;;
75744;SDS011;64359;51.366;-0.222;2023-09-19T05:20:28;2.20;;;1.10;;
75744;SDS011;64359;51.366;-0.222;2023-09-19T05:21:34;3.10;;;1.20;;
75744;SDS011;64359;51.366;-0.222;2023-09-19T05:22:40;3.00;;;1.20;;
75744;SDS011;64359;51.366;-0.222;2023-09-19T05:23:44;2.20;;;0.90;;
75744;SDS011;64359;51.366;-0.222;2023-09-19T05:24:49;4.60;;;1.40;;
75744;SDS011;64359;51.366;-0.222;2023-09-19T05:25:54;3.50;;;1.10;;
75744;SDS011;64359;51.366;-0.222;2023-09-19T05:27:01;2.60;;;1.10;;
75744;SDS011;64359;51.366;-0.222;2023-09-19T05:28:09;3.40;;;1.20;;
75744;SDS011;64359;51.366;-0.222;2023-09-19T05:29:16;3.90;;;1.20;;
75744;SDS011;64359;51.366;-0.222;2023-09-19T05:30:21;2.40;;;1.30;;
75744;SDS011;64359;51.366;-0.222;2023-09-19T05:31:25;6.50;;;1.50;;
75744;SDS011;64359;51.366;-0.222;2023-09-19T05:32:29;6.00;;;1.30;;
75744;SDS011;64359;51.366;-0.222;2023-09-19T05:33:34;2.80;;;1.40;;
75744;SDS011;64359;51.366;-0.222;2023-09-19T05:34:38;5.40;;;1.50;;
75744;SDS011;64359;51.366;-0.222;2023-09-19T05:35:42;5.30;;;2.00;;
75744;SDS011;64359;51.366;-0.222;2023-09-19T05:36:48;3.00;;;1.10;;
75744;SDS011;64359;51.366;-0.222;2023-09-19T05:37:53;2.20;;;1.20;;
75744;SDS011;64359;51.366;-0.222;2023-09-19T05:38:59;2.70;;;1.40;;
75744;SDS011;64359;51.366;-0.222;2023-09-19T05:40:04;3.60;;;1.10;;
75744;SDS011;64359;51.366;-0.222;2023-09-19T05:41:12;3.70;;;1.40;;
75744;SDS011;64359;51.366;-0.222;2023-09-19T05:42:17;4.70;;;1.20;;
75744;SDS011;64359;51.366;-0.222;2023-09-19T05:43:21;5.00;;;1.30;;
75744;SDS011;64359;51.366;-0.222;2023-09-19T05:44:26;3.60;;;1.30;;
75744;SDS011;64359;51.366;-0.222;2023-09-19T05:45:30;2.50;;;1.00;;
75744;SDS011;64359;51.366;-0.222;2023-09-19T05:46:35;2.10;;;1.00;;
75744;SDS011;64359;51.366;-0.222;2023-09-19T05:47:39;4.80;;;1.40;;
75744;SDS011;64359;51.366;-0.222;2023-09-19T05:48:47;3.60;;;1.20;;
75744;SDS011;64359;51.366;-0.222;2023-09-19T05:49:51;3.90;;;0.90;;
75744;SDS011;64359;51.366;-0.222;2023-09-19T05:50:56;4.20;;;1.10;;
75744;SDS011;64359;51.366;-0.222;2023-09-19T05:52:00;2.00;;;1.30;;
75744;SDS011;64359;51.366;-0.222;2023-09-19T05:53:05;4.90;;;1.20;;
75744;SDS011;64359;51.366;-0.222;2023-09-19T05:54:09;2.90;;;1.20;;
75744;SDS011;64359;51.366;-0.222;2023-09-19T05:55:14;3.70;;;1.20;;
75744;SDS011;64359;51.366;-0.222;2023-09-19T05:56:18;4.90;;;1.30;;
75744;SDS011;64359;51.366;-0.222;2023-09-19T05:57:22;4.20;;;1.10;;
75744;SDS011;64359;51.366;-0.222;2023-09-19T05:58:27;5.30;;;1.10;;
75744;SDS011;64359;51.366;-0.222;2023-09-19T05:59:31;6.70;;;1.30;;
75744;SDS011;64359;51.366;-0.222;2023-09-19T06:00:36;3.10;;;1.40;;
75744;SDS011;64359;51.366;-0.222;2023-09-19T06:01:40;3.80;;;1.30;;
75744;SDS011;64359;51.366;-0.222;2023-09-19T06:02:45;6.40;;;1.90;;
75744;SDS011;64359;51.366;-0.222;2023-09-19T06:03:51;4.70;;;1.80;;
75744;SDS011;64359;51.366;-0.222;2023-09-19T06:04:55;6.00;;;2.00;;
75744;SDS011;64359;51.366;-0.222;2023-09-19T06:06:00;8.10;;;1.40;;
75744;SDS011;64359;51.366;-0.222;2023-09-19T06:07:05;12.60;;;1.80;;
75744;SDS011;64359;51.366;-0.222;2023-09-19T06:08:10;10.60;;;2.10;;
75744;SDS011;64359;51.366;-0.222;2023-09-19T06:09:14;16.00;;;2.00;;
75744;SDS011;64359;51.366;-0.222;2023-09-19T06:10:19;9.00;;;2.00;;
75744;SDS011;64359;51.366;-0.222;2023-09-19T06:11:24;8.70;;;2.20;;
75744;SDS011;64359;51.366;-0.222;2023-09-19T06:12:29;11.40;;;2.10;;
75744;SDS011;64359;51.366;-0.222;2023-09-19T06:13:34;9.50;;;1.90;;
75744;SDS011;64359;51.366;-0.222;2023-09-19T06:14:40;10.30;;;2.30;;
75744;SDS011;64359;51.366;-0.222;2023-09-19T06:15:45;7.40;;;1.80;;
75744;SDS011;64359;51.366;-0.222;2023-09-19T06:16:49;7.20;;;1.90;;
75744;SDS011;64359;51.366;-0.222;2023-09-19T06:17:55;6.60;;;2.00;;
75744;SDS011;64359;51.366;-0.222;2023-09-19T06:19:00;10.50;;;2.10;;
75744;SDS011;64359;51.366;-0.222;2023-09-19T06:20:06;11.30;;;2.20;;
75744;SDS011;64359;51.366;-0.222;2023-09-19T06:21:14;6.00;;;2.10;;
75744;SDS011;64359;51.366;-0.222;2023-09-19T06:22:19;5.30;;;1.50;;
75744;SDS011;64359;51.366;-0.222;2023-09-19T06:23:23;7.80;;;1.60;;
75744;SDS011;64359;51.366;-0.222;2023-09-19T06:24:30;4.60;;;1.40;;
75744;SDS011;64359;51.366;-0.222;2023-09-19T06:25:34;7.70;;;1.60;;
75744;SDS011;64359;51.366;-0.222;2023-09-19T06:26:39;7.80;;;1.70;;
75744;SDS011;64359;51.366;-0.222;2023-09-19T06:27:45;7.90;;;1.80;;
75744;SDS011;64359;51.366;-0.222;2023-09-19T06:28:50;5.10;;;1.40;;
75744;SDS011;64359;51.366;-0.222;2023-09-19T06:29:54;4.20;;;1.20;;
75744;SDS011;64359;51.366;-0.222;2023-09-19T06:30:59;4.50;;;1.20;;
75744;SDS011;64359;51.366;-0.222;2023-09-19T06:32:11;6.20;;;1.40;;
75744;SDS011;64359;51.366;-0.222;2023-09-19T06:33:15;5.60;;;1.30;;
75744;SDS011;64359;51.366;-0.222;2023-09-19T06:34:22;5.70;;;1.10;;